Honaunau, HI (96726)

1:19 AM HST on September 02, 2015 (GMT -1000)
KEE KEE st Neighborhood | | Change Station
CLOSE
Current Station
Personal Weather Station
Location: Kealakekua, HI
Elevation: 1388 ft
Nearby Weather Stations

Elev 1388 ft 19.51 °N, 155.93 °W | Updated 2 seconds ago

Heavy Rain
Heavy Rain Mist
74.1 °F
Feels Like 71 °F
N
2.9
Wind Variable Wind from SSE
Gusts 4.9 mph

Today
High -- | Low -- °F
--% Chance of Precip.
Yesterday
High -- | Low -- °F
Precip. -- in
6:08 AM 6:37 PM
Waning Gibbous, 81% visible
Pressure 29.88 in
Visibility 3.0 miles
Clouds Mostly Cloudy 4800 ft
Mostly Cloudy 7500 ft
Overcast 11000 ft
Heat Index 71 °F
Dew Point 73 °F
Humidity 97%
Rainfall 0.85 in
Snow Depth Not available.
UV 0.0 out of 12
Pollen Not available.
Air Quality Not available.
Flu Activity Not available.
METAR PHKO 021053Z AUTO 16012KT 3SM +RA BR BKN048 BKN075 OVC110 26/24 A2987 RMK AO2 SLP116 P0020 T02560244 TSNO
Pressure 29.88 in
Visibility 3.0 miles
Clouds Mostly Cloudy 4800 ft
Mostly Cloudy 7500 ft
Overcast 11000 ft
Heat Index 71 °F
Dew Point 73 °F
Humidity 97%
Rainfall 0.85 in
Snow Depth Not available.
UV 0.0 out of 12
Pollen Not available.
Air Quality Not available.
Flu Activity Not available.
METAR PHKO 021053Z AUTO 16012KT 3SM +RA BR BKN048 BKN075 OVC110 26/24 A2987 RMK AO2 SLP116 P0020 T02560244 TSNO

10-Day Weather Forecast

×

Almanac

Astronomy

Sep. 02, 2015 Rise Set
Actual Time
Civil Twilight
Nautical Twilight
Astronomical Twilight
Moon
Length of Visible Light
Length of Day
Tomorrow will be .
, % of the Moon is Illuminated

Today's Extremes

State Highs State Lows

Community

WunderPhotos

Upload Photos

1,851,736 photos uploaded!

WunderBlogs® & News

Nearby

Air Quality

  Air Quality AQ Index Pollutant
Not available.

Snow Depth

Station Depth Elevation

Earthquake Activity

City Distance Mag. Time & Date
Minimum magnitude displayed is 2.5.

Coastal Water Temperatures

Place Temperature

Stations

Nearby Weather Stations

Station Location Temp. Windchill Dew Point Humidity Wind Precip. Elev Updated Type